createdAt,value
2018-10-16T15:18:04.466Z,11.60
2018-10-16T15:19:04.315Z,20.00
2018-10-16T15:20:04.369Z,13.90
2018-10-16T15:21:04.274Z,11.00
2018-10-16T15:22:04.325Z,19.50
2018-10-16T15:23:04.288Z,11.50
2018-10-16T15:24:04.282Z,11.80
2018-10-16T15:25:04.254Z,12.80
2018-10-16T15:26:04.282Z,11.30
2018-10-16T15:27:04.207Z,11.90
2018-10-16T15:28:04.235Z,24.80
2018-10-16T15:29:04.233Z,12.30
2018-10-16T15:30:04.196Z,13.10
2018-10-16T15:31:04.180Z,15.70
2018-10-16T15:32:04.257Z,13.60
2018-10-16T15:33:04.164Z,14.20
2018-10-16T15:34:04.179Z,19.00
2018-10-16T15:35:04.263Z,11.10
2018-10-16T15:36:04.126Z,15.20
2018-10-16T15:37:04.124Z,9.60
2018-10-16T15:38:04.139Z,12.50
2018-10-16T15:39:04.113Z,14.30
2018-10-16T15:40:04.108Z,15.50
2018-10-16T15:41:04.061Z,11.40
2018-10-16T15:42:04.091Z,13.00
2018-10-16T15:43:04.033Z,15.50
2018-10-16T15:44:04.069Z,41.00
2018-10-16T15:45:04.054Z,19.80
2018-10-16T15:46:04.033Z,91.20
2018-10-16T15:47:04.002Z,73.60
2018-10-16T15:48:04.043Z,29.50
2018-10-16T15:49:04.042Z,14.70
2018-10-16T15:50:04.162Z,16.60
2018-10-16T15:51:03.978Z,14.00
2018-10-16T15:52:03.970Z,23.60
2018-10-16T15:53:03.919Z,27.40
2018-10-16T15:54:03.946Z,24.60
2018-10-16T15:55:03.920Z,75.30
2018-10-16T15:56:03.953Z,35.50
2018-10-16T15:57:03.889Z,33.30
2018-10-16T15:58:03.961Z,13.70
2018-10-16T15:59:03.838Z,27.10
2018-10-16T16:00:03.887Z,13.90
2018-10-16T16:01:03.820Z,13.70
2018-10-16T16:02:03.902Z,30.00
2018-10-16T16:03:03.811Z,11.60
2018-10-16T16:04:03.851Z,13.90
2018-10-16T16:05:03.770Z,20.80
2018-10-16T16:06:03.782Z,45.90
2018-10-16T16:07:03.747Z,23.60
2018-10-16T16:08:03.759Z,22.90
2018-10-16T16:09:03.760Z,34.10
2018-10-16T16:10:03.766Z,84.60
2018-10-16T16:11:14.256Z,68.90
2018-10-16T16:12:03.732Z,66.30
2018-10-16T16:13:03.689Z,64.10
2018-10-16T16:14:03.724Z,53.40
2018-10-16T16:15:03.680Z,29.30
2018-10-16T16:16:03.742Z,62.70
2018-10-16T16:17:03.644Z,131.60
2018-10-16T16:18:03.744Z,98.10
2018-10-16T16:19:03.616Z,62.10
2018-10-16T16:20:03.648Z,44.50
2018-10-16T16:21:03.608Z,49.20
2018-10-16T16:22:03.588Z,29.90
2018-10-16T16:23:03.572Z,18.10
2018-10-16T16:24:03.595Z,33.80
2018-10-16T16:25:03.558Z,51.40
2018-10-16T16:26:03.592Z,47.20
2018-10-16T16:27:03.538Z,54.20
2018-10-16T16:28:03.549Z,55.00
2018-10-16T16:29:03.505Z,45.00
2018-10-16T16:30:03.600Z,29.50
2018-10-16T16:31:03.497Z,33.70
2018-10-16T16:32:03.515Z,39.30
2018-10-16T16:33:03.482Z,36.90
2018-10-16T16:34:03.506Z,29.70
2018-10-16T16:35:03.489Z,65.20
2018-10-16T16:36:03.467Z,153.80
2018-10-16T16:37:03.412Z,78.00
2018-10-16T16:38:03.500Z,62.40
2018-10-16T16:39:03.401Z,24.80
2018-10-16T16:40:03.458Z,19.60
2018-10-16T16:41:03.428Z,44.00
2018-10-16T16:42:03.366Z,40.60
2018-10-16T16:43:03.351Z,64.60
2018-10-16T16:44:03.471Z,43.60
2018-10-16T16:45:03.351Z,42.40
2018-10-16T16:46:03.413Z,28.00
2018-10-16T16:47:03.329Z,22.30
2018-10-16T16:48:03.309Z,38.40
2018-10-16T16:49:03.274Z,49.60
2018-10-16T16:50:03.341Z,57.80
2018-10-16T16:51:03.323Z,52.80
2018-10-16T16:52:03.408Z,39.10
2018-10-16T16:53:03.258Z,58.00
2018-10-16T16:54:03.222Z,42.10
2018-10-16T16:55:03.213Z,38.40
2018-10-16T16:56:03.249Z,60.20
2018-10-16T16:57:03.208Z,29.50
2018-10-16T16:58:03.223Z,27.80
2018-10-16T16:59:04.179Z,27.20
2018-10-16T17:00:03.162Z,34.50
2018-10-16T17:01:03.148Z,23.30
2018-10-16T17:02:03.178Z,17.00
2018-10-16T17:03:03.123Z,33.50
2018-10-16T17:04:03.147Z,29.50
2018-10-16T17:05:03.118Z,31.30
2018-10-16T17:06:03.151Z,30.80
2018-10-16T17:07:03.080Z,26.00
2018-10-16T17:08:03.121Z,47.50
2018-10-16T17:09:03.061Z,53.10
2018-10-16T17:10:03.115Z,46.70
2018-10-16T17:11:03.045Z,54.00
2018-10-16T17:12:03.020Z,58.30
2018-10-16T17:13:03.007Z,82.00
2018-10-16T17:14:03.071Z,95.70
2018-10-16T17:15:02.982Z,83.40
2018-10-16T17:16:02.993Z,71.60
2018-10-16T17:17:02.963Z,73.20
2018-10-16T17:18:02.952Z,71.00
2018-10-16T17:19:02.964Z,59.80
2018-10-16T17:20:02.953Z,53.40
2018-10-16T17:21:02.940Z,55.80
2018-10-16T17:22:02.930Z,24.00
2018-10-16T17:23:02.897Z,23.00
2018-10-16T17:24:02.882Z,102.60
2018-10-16T17:25:02.985Z,66.80
2018-10-16T17:26:03.226Z,82.10
2018-10-16T17:27:02.871Z,84.10
2018-10-16T17:28:03.058Z,47.80
2018-10-16T17:29:03.498Z,91.70
2018-10-16T17:30:02.813Z,74.00
2018-10-16T17:31:02.794Z,93.40
2018-10-16T17:32:02.794Z,101.90
2018-10-16T17:33:02.818Z,98.70
2018-10-16T17:34:02.830Z,91.00
2018-10-16T17:35:02.934Z,56.90
2018-10-16T17:36:02.754Z,72.70
2018-10-16T17:37:02.748Z,66.60
2018-10-16T17:38:02.753Z,49.40
2018-10-16T17:39:02.738Z,51.30
2018-10-16T17:40:02.701Z,43.30
2018-10-16T17:41:02.758Z,70.60
2018-10-16T17:42:02.679Z,81.10
2018-10-16T17:43:02.672Z,98.80
2018-10-16T17:44:02.665Z,138.20
2018-10-16T17:45:02.660Z,69.50
2018-10-16T17:46:02.640Z,62.10
2018-10-16T17:47:02.665Z,58.20
2018-10-16T17:48:02.684Z,59.40
2018-10-16T17:49:02.599Z,86.10
2018-10-16T17:50:02.601Z,76.40
2018-10-16T17:51:02.605Z,47.20
2018-10-16T17:52:02.578Z,41.70
2018-10-16T17:53:02.572Z,36.60
2018-10-16T17:54:02.558Z,63.80
2018-10-16T17:55:03.307Z,64.60
2018-10-16T17:56:02.523Z,39.00
2018-10-16T17:57:02.604Z,47.80
2018-10-16T17:58:02.540Z,43.80
2018-10-16T17:59:02.503Z,43.90
2018-10-16T18:00:02.508Z,56.60
2018-10-16T18:01:02.481Z,62.80
2018-10-16T18:02:02.465Z,52.50
2018-10-16T18:03:02.517Z,51.40
2018-10-16T18:04:02.453Z,62.80
2018-10-16T18:05:02.426Z,113.80
2018-10-16T18:06:02.520Z,119.90
2018-10-16T18:07:02.426Z,110.30
2018-10-16T18:08:02.394Z,67.30
2018-10-16T18:09:02.410Z,67.80
2018-10-16T18:10:02.367Z,62.20
2018-10-16T18:11:02.361Z,86.60
2018-10-16T18:12:02.353Z,122.40
2018-10-16T18:13:02.370Z,106.50
2018-10-16T18:14:02.364Z,50.00
2018-10-16T18:15:02.314Z,96.10
2018-10-16T18:16:02.301Z,49.80
2018-10-16T18:17:02.293Z,146.50
2018-10-16T18:18:02.324Z,95.60
2018-10-16T18:19:02.305Z,83.20
2018-10-16T18:20:02.255Z,118.70
2018-10-16T18:21:02.257Z,134.80
2018-10-16T18:22:02.617Z,155.10
2018-10-16T18:23:02.223Z,93.50
2018-10-16T18:24:02.244Z,170.30
2018-10-16T18:25:02.210Z,102.40
2018-10-16T18:26:02.209Z,96.50
2018-10-16T18:27:02.200Z,122.20
2018-10-16T18:28:02.204Z,148.80
2018-10-16T18:29:02.175Z,112.70
2018-10-16T18:30:02.194Z,114.30
2018-10-16T18:31:02.131Z,108.60
2018-10-16T18:32:02.120Z,115.70
2018-10-16T18:33:02.175Z,60.00
2018-10-16T18:34:02.094Z,71.60
2018-10-16T18:35:02.094Z,31.30
2018-10-16T18:36:02.098Z,25.90
2018-10-16T18:37:02.064Z,29.70
2018-10-16T18:38:02.048Z,53.90
2018-10-16T18:39:02.157Z,36.70
2018-10-16T18:40:02.143Z,46.40
2018-10-16T18:41:02.030Z,66.70
2018-10-16T18:42:02.016Z,27.70
2018-10-16T18:43:02.012Z,33.80
2018-10-16T18:44:01.986Z,51.00
2018-10-16T18:45:02.034Z,70.80
2018-10-16T18:46:01.976Z,45.20
2018-10-16T18:47:01.951Z,46.00
2018-10-16T18:48:01.948Z,58.30
2018-10-16T18:49:01.943Z,83.00
2018-10-16T18:50:01.919Z,74.20
2018-10-16T18:51:02.051Z,99.70
2018-10-16T18:52:01.900Z,66.60
2018-10-16T18:53:01.883Z,62.10
2018-10-16T18:54:01.871Z,116.70
2018-10-16T18:55:01.866Z,46.30
2018-10-16T18:56:01.852Z,74.20
2018-10-16T18:57:01.946Z,35.40
2018-10-16T18:58:01.841Z,83.40
2018-10-16T18:59:01.819Z,47.70
2018-10-16T19:00:01.808Z,42.90
2018-10-16T19:01:01.797Z,106.00
2018-10-16T19:02:01.788Z,67.80
2018-10-16T19:03:01.826Z,39.80
2018-10-16T19:04:01.786Z,110.10
2018-10-16T19:05:01.752Z,111.30
2018-10-16T19:06:01.739Z,108.70
2018-10-16T19:07:01.731Z,72.20
2018-10-16T19:08:01.815Z,139.40
2018-10-16T19:09:01.732Z,99.00
2018-10-16T19:10:01.721Z,62.60
2018-10-16T19:11:01.692Z,67.60
2018-10-16T19:12:01.675Z,136.90
2018-10-16T19:13:01.673Z,54.30
2018-10-16T19:14:01.767Z,83.40
2018-10-16T19:15:01.672Z,93.00
2018-10-16T19:16:01.662Z,90.60
2018-10-16T19:17:01.617Z,88.40
2018-10-16T19:18:01.613Z,97.90
2018-10-16T19:19:01.592Z,107.70
2018-10-16T19:20:01.625Z,111.80
2018-10-16T19:21:01.619Z,86.20
2018-10-16T19:22:02.308Z,87.80
2018-10-16T19:23:01.593Z,88.90
2018-10-16T19:24:01.546Z,59.60
2018-10-16T19:25:01.531Z,93.90
2018-10-16T19:26:01.519Z,112.60
2018-10-16T19:27:01.531Z,63.10
2018-10-16T19:28:01.508Z,77.40
2018-10-16T19:29:01.513Z,60.90
2018-10-16T19:30:01.470Z,79.20
2018-10-16T19:31:01.462Z,61.20
2018-10-16T19:32:01.451Z,72.20
2018-10-16T19:33:01.589Z,37.80
2018-10-16T19:34:01.423Z,68.50
2018-10-16T19:35:01.418Z,28.80
2018-10-16T19:36:01.416Z,116.40
2018-10-16T19:37:01.391Z,117.30
2018-10-16T19:38:01.373Z,97.40
2018-10-16T19:39:01.403Z,118.00
2018-10-16T19:40:01.413Z,95.00
2018-10-16T19:41:01.347Z,143.40
2018-10-16T19:42:01.343Z,105.20
2018-10-16T19:43:01.327Z,83.90
2018-10-16T19:44:01.340Z,120.20
2018-10-16T19:45:01.394Z,100.90
2018-10-16T19:46:01.315Z,91.70
2018-10-16T19:47:01.278Z,97.90
2018-10-16T19:48:01.262Z,91.90
2018-10-16T19:49:01.256Z,63.50
2018-10-16T19:50:01.266Z,22.30
2018-10-16T19:51:01.292Z,41.80
2018-10-16T19:52:01.238Z,72.80
2018-10-16T19:53:01.214Z,174.30
2018-10-16T19:54:01.200Z,89.90
2018-10-16T19:55:01.188Z,77.70
2018-10-16T19:56:01.219Z,40.20
2018-10-16T19:57:01.236Z,46.90
2018-10-16T19:58:01.155Z,69.50
2018-10-16T19:59:01.142Z,114.70
2018-10-16T20:00:01.145Z,95.00
2018-10-16T20:01:01.127Z,80.00
2018-10-16T20:02:01.180Z,37.00
2018-10-16T20:03:01.182Z,34.30
2018-10-16T20:04:01.084Z,45.40
2018-10-16T20:05:01.081Z,42.70
2018-10-16T20:06:01.065Z,58.20
2018-10-16T20:07:01.103Z,25.30
2018-10-16T20:08:01.077Z,66.10
2018-10-16T20:09:01.055Z,75.80
2018-10-16T20:10:01.023Z,115.60
2018-10-16T20:11:01.008Z,110.80
2018-10-16T20:12:01.046Z,60.10
2018-10-16T20:13:00.986Z,30.60
2018-10-16T20:14:01.028Z,54.30
2018-10-16T20:15:00.966Z,52.60
2018-10-16T20:16:00.948Z,56.10
2018-10-16T20:17:00.946Z,71.90
2018-10-16T20:18:00.950Z,55.70
2018-10-16T20:19:00.916Z,44.90
2018-10-16T20:20:00.926Z,34.90
2018-10-16T20:21:00.898Z,100.00
2018-10-16T20:22:00.883Z,58.30
2018-10-16T20:23:00.876Z,86.20
2018-10-16T20:24:00.902Z,74.80
2018-10-16T20:25:00.893Z,104.40
2018-10-16T20:26:00.855Z,102.60
2018-10-16T20:27:00.823Z,80.00
2018-10-16T20:28:00.818Z,99.50
2018-10-16T20:29:00.812Z,92.30
2018-10-16T20:30:00.793Z,85.20
2018-10-16T20:31:00.796Z,82.20
2018-10-16T20:32:00.787Z,109.80
2018-10-16T20:33:00.759Z,111.20
2018-10-16T20:34:00.828Z,65.40
2018-10-16T20:35:00.735Z,93.10
2018-10-16T20:36:43.357Z,110.50
2018-10-16T20:37:01.978Z,141.20
2018-10-16T20:45:52.471Z,59.00
